createdAt,value
2022-10-06T00:00:39.637Z,2.30
2022-10-06T00:03:06.591Z,2.40
2022-10-06T00:05:33.847Z,2.60
2022-10-06T00:08:01.591Z,2.22
2022-10-06T00:10:29.482Z,2.15
2022-10-06T00:12:56.781Z,2.10
2022-10-06T00:15:27.825Z,2.40
2022-10-06T00:17:55.820Z,2.30
2022-10-06T00:20:23.492Z,2.30
2022-10-06T00:22:50.455Z,2.05
2022-10-06T00:25:21.175Z,2.28
2022-10-06T00:27:49.855Z,2.42
2022-10-06T00:30:19.678Z,2.35
2022-10-06T00:32:52.502Z,2.33
2022-10-06T00:35:20.398Z,2.15
2022-10-06T00:37:47.480Z,2.58
2022-10-06T00:40:14.299Z,2.30
2022-10-06T00:42:55.899Z,2.83
2022-10-06T00:45:41.585Z,2.33
2022-10-06T00:48:22.314Z,1.70
2022-10-06T00:50:49.469Z,2.13
2022-10-06T00:53:17.055Z,1.83
2022-10-06T00:55:43.971Z,2.10
2022-10-06T00:58:13.018Z,2.40
2022-10-06T01:00:43.099Z,2.25
2022-10-06T01:03:15.537Z,2.00
2022-10-06T01:05:46.699Z,2.10
2022-10-06T01:08:14.487Z,1.98
2022-10-06T01:10:41.313Z,2.05
2022-10-06T01:13:10.587Z,1.83
2022-10-06T01:15:57.113Z,1.50
2022-10-06T01:18:27.251Z,1.63
2022-10-06T01:21:05.164Z,1.58
2022-10-06T01:23:33.436Z,1.52
2022-10-06T01:26:03.545Z,1.02
2022-10-06T01:28:31.047Z,1.30
2022-10-06T01:31:00.927Z,0.55
2022-10-06T01:33:29.819Z,0.50
2022-10-06T01:35:56.998Z,0.50
2022-10-06T01:38:24.879Z,0.30
2022-10-06T01:40:53.521Z,0.50
2022-10-06T01:43:20.400Z,0.43
2022-10-06T01:45:56.216Z,0.98
2022-10-06T01:48:24.213Z,0.40
2022-10-06T01:50:51.218Z,0.63
2022-10-06T01:53:18.455Z,0.40
2022-10-06T01:55:45.173Z,0.40
2022-10-06T01:58:12.522Z,0.40
2022-10-06T02:00:40.005Z,0.73
2022-10-06T02:03:07.583Z,0.40
2022-10-06T02:05:35.095Z,0.63
2022-10-06T02:08:02.668Z,0.30
2022-10-06T02:10:29.448Z,0.22
2022-10-06T02:12:57.113Z,0.32
2022-10-06T02:15:24.258Z,0.43
2022-10-06T02:17:51.056Z,0.22
2022-10-06T02:20:17.864Z,0.40
2022-10-06T02:22:44.675Z,0.30
2022-10-06T02:25:12.350Z,0.30
2022-10-06T02:27:39.433Z,0.40
2022-10-06T02:30:07.637Z,0.30
2022-10-06T02:32:39.743Z,0.28
2022-10-06T02:35:07.274Z,0.40
2022-10-06T02:37:34.282Z,0.45
2022-10-06T02:40:01.321Z,0.30
2022-10-06T02:42:28.223Z,0.50
2022-10-06T02:44:54.918Z,0.40
2022-10-06T02:47:22.710Z,0.30
2022-10-06T02:49:49.397Z,0.20
2022-10-06T02:52:16.091Z,0.52
2022-10-06T02:54:42.760Z,0.55
2022-10-06T02:57:09.536Z,0.30
2022-10-06T02:59:36.540Z,0.75
2022-10-06T03:02:03.811Z,0.75
2022-10-06T03:04:30.776Z,0.35
2022-10-06T03:06:57.452Z,0.30
2022-10-06T03:09:24.253Z,0.73
2022-10-06T03:12:05.957Z,0.22
2022-10-06T03:14:33.238Z,0.30
2022-10-06T03:17:01.954Z,0.80
2022-10-06T03:19:28.619Z,0.30
2022-10-06T03:21:55.372Z,0.22
2022-10-06T03:24:22.064Z,0.30
2022-10-06T03:26:48.802Z,0.68
2022-10-06T03:29:16.319Z,0.30
2022-10-06T03:31:43.565Z,0.30
2022-10-06T03:34:10.549Z,0.45
2022-10-06T03:36:37.263Z,0.40
2022-10-06T03:39:05.801Z,0.40
2022-10-06T03:41:35.891Z,0.20
2022-10-06T03:44:03.694Z,0.73
2022-10-06T03:46:32.888Z,0.43
2022-10-06T03:49:01.561Z,0.40
2022-10-06T03:51:37.441Z,0.50
2022-10-06T03:54:04.753Z,0.45
2022-10-06T03:56:36.467Z,0.30
2022-10-06T03:59:05.863Z,0.20
2022-10-06T04:01:37.935Z,0.43
2022-10-06T04:04:05.586Z,0.30
2022-10-06T04:06:34.627Z,0.25
2022-10-06T04:09:02.205Z,0.55
2022-10-06T04:11:31.458Z,0.55
2022-10-06T04:14:04.289Z,0.50
2022-10-06T04:16:33.376Z,0.57
2022-10-06T04:19:05.894Z,0.30
2022-10-06T04:21:36.429Z,0.45
2022-10-06T04:24:04.326Z,0.40
2022-10-06T04:26:35.814Z,0.40
2022-10-06T04:29:02.667Z,1.27
2022-10-06T04:31:32.914Z,0.38
2022-10-06T04:34:00.663Z,0.30
2022-10-06T04:36:38.424Z,0.60
2022-10-06T04:41:35.520Z,0.40
2022-10-06T04:44:03.388Z,0.32
2022-10-06T04:46:42.727Z,0.47
2022-10-06T04:49:16.226Z,0.90
2022-10-06T04:51:46.538Z,0.40
2022-10-06T04:54:13.241Z,1.35
2022-10-06T04:56:40.019Z,0.40
2022-10-06T04:59:06.798Z,0.40
2022-10-06T05:01:36.052Z,0.50
2022-10-06T05:04:04.544Z,0.82
2022-10-06T05:06:39.776Z,0.40
2022-10-06T05:09:12.216Z,0.32
2022-10-06T05:11:39.342Z,0.30
2022-10-06T05:14:06.226Z,0.60
2022-10-06T05:16:33.186Z,0.50
2022-10-06T05:19:00.123Z,0.35
2022-10-06T05:21:29.973Z,0.63
2022-10-06T05:23:57.260Z,0.68
2022-10-06T05:26:27.013Z,0.50
2022-10-06T05:28:53.676Z,0.65
2022-10-06T05:31:27.075Z,0.70
2022-10-06T05:33:55.162Z,0.90
2022-10-06T05:36:24.308Z,0.63
2022-10-06T05:38:51.016Z,1.02
2022-10-06T05:41:28.874Z,0.45
2022-10-06T05:46:25.343Z,0.50
2022-10-06T05:48:57.142Z,0.65
2022-10-06T05:51:30.999Z,0.77
2022-10-06T05:53:59.005Z,0.43
2022-10-06T05:56:36.948Z,0.60
2022-10-06T05:59:04.553Z,0.80
2022-10-06T06:01:36.891Z,0.57
2022-10-06T06:04:06.709Z,0.60
2022-10-06T06:06:36.565Z,0.60
2022-10-06T06:09:09.829Z,0.80
2022-10-06T06:11:39.423Z,0.55
2022-10-06T06:14:11.651Z,0.98
2022-10-06T06:16:40.377Z,0.93
2022-10-06T06:19:08.882Z,1.10
2022-10-06T06:21:36.169Z,0.90
2022-10-06T06:24:04.141Z,1.15
2022-10-06T06:26:33.795Z,0.90
2022-10-06T06:29:05.237Z,0.75
2022-10-06T06:31:37.226Z,0.93
2022-10-06T06:34:06.755Z,0.70
2022-10-06T06:36:40.801Z,0.70
2022-10-06T06:39:10.564Z,1.27
2022-10-06T06:41:39.490Z,0.80
2022-10-06T06:44:08.447Z,0.80
2022-10-06T06:49:07.146Z,0.93
2022-10-06T06:51:37.207Z,0.65
2022-10-06T06:54:05.010Z,0.77
2022-10-06T06:56:35.193Z,1.23
2022-10-06T06:59:10.863Z,0.82
2022-10-06T07:01:44.365Z,0.95
2022-10-06T07:04:13.238Z,1.48
2022-10-06T07:06:40.990Z,0.73
2022-10-06T07:09:08.582Z,1.27
2022-10-06T07:11:38.048Z,1.05
2022-10-06T07:14:10.054Z,0.85
2022-10-06T07:16:55.348Z,1.15
2022-10-06T07:19:40.628Z,0.93
2022-10-06T07:22:32.240Z,0.93
2022-10-06T07:25:07.951Z,0.80
2022-10-06T07:27:46.948Z,0.90
2022-10-06T07:30:22.543Z,1.10
2022-10-06T07:32:50.823Z,1.33
2022-10-06T07:35:20.081Z,1.05
2022-10-06T07:37:47.129Z,1.20
2022-10-06T07:40:14.895Z,0.95
2022-10-06T07:42:48.273Z,1.23
2022-10-06T07:45:38.491Z,0.80
2022-10-06T07:48:14.472Z,1.13
2022-10-06T07:50:42.911Z,0.82
2022-10-06T07:53:09.786Z,1.00
2022-10-06T07:55:39.713Z,0.90
2022-10-06T07:58:20.686Z,0.95
2022-10-06T08:00:48.803Z,1.13
2022-10-06T08:03:18.467Z,1.10
2022-10-06T08:05:46.169Z,1.10
2022-10-06T08:08:14.808Z,0.98
2022-10-06T08:10:42.395Z,1.48
2022-10-06T08:13:10.405Z,1.30
2022-10-06T08:15:37.300Z,0.63
2022-10-06T08:18:12.173Z,1.17
2022-10-06T08:20:48.204Z,0.90
2022-10-06T08:23:15.006Z,1.05
2022-10-06T08:25:50.261Z,1.40
2022-10-06T08:28:17.162Z,1.02
2022-10-06T08:30:43.908Z,1.33
2022-10-06T08:33:10.601Z,1.25
2022-10-06T08:35:39.351Z,1.33
2022-10-06T08:38:06.381Z,1.20
2022-10-06T08:40:34.073Z,1.23
2022-10-06T08:43:02.715Z,1.08
2022-10-06T08:45:43.320Z,0.82
2022-10-06T08:48:18.815Z,0.98
2022-10-06T08:51:09.222Z,0.95
2022-10-06T08:53:46.897Z,1.08
2022-10-06T08:58:53.918Z,1.25
2022-10-06T09:01:26.434Z,1.20
2022-10-06T09:04:01.549Z,1.08
2022-10-06T09:07:12.237Z,1.80
2022-10-06T09:09:54.889Z,1.17
2022-10-06T09:12:26.123Z,2.22
2022-10-06T09:15:13.176Z,2.25
2022-10-06T09:17:55.188Z,1.55
2022-10-06T09:20:51.053Z,1.40
2022-10-06T09:23:38.609Z,1.25
2022-10-06T09:26:12.823Z,1.48
2022-10-06T09:28:40.194Z,1.58
2022-10-06T09:31:18.325Z,1.48
2022-10-06T09:33:45.806Z,1.55
2022-10-06T09:36:12.770Z,1.30
2022-10-06T09:38:56.744Z,1.30
2022-10-06T09:41:50.001Z,1.33
2022-10-06T09:44:29.382Z,2.10
2022-10-06T09:46:56.149Z,0.85
2022-10-06T09:49:24.378Z,1.85
2022-10-06T09:52:18.388Z,1.20
2022-10-06T09:54:45.258Z,1.60
2022-10-06T09:57:20.004Z,1.42
2022-10-06T09:59:48.036Z,2.03
2022-10-06T10:02:41.884Z,1.45
2022-10-06T10:05:20.918Z,0.90
2022-10-06T10:08:01.456Z,1.40
2022-10-06T10:10:28.134Z,1.40
2022-10-06T10:12:57.156Z,1.67
2022-10-06T10:15:40.465Z,1.17
2022-10-06T10:18:14.658Z,2.35
2022-10-06T10:20:55.866Z,1.52
2022-10-06T10:23:40.689Z,1.15
2022-10-06T10:28:56.039Z,0.90
2022-10-06T10:31:50.245Z,1.27
2022-10-06T10:34:35.308Z,1.33
2022-10-06T10:37:12.246Z,0.93
2022-10-06T10:40:02.164Z,1.45
2022-10-06T10:42:45.314Z,1.80
2022-10-06T10:45:23.076Z,1.85
2022-10-06T10:47:50.301Z,1.05
2022-10-06T10:50:24.862Z,1.30
2022-10-06T10:52:56.306Z,1.75
2022-10-06T10:55:41.751Z,1.15
2022-10-06T10:58:20.071Z,0.90
2022-10-06T11:00:53.355Z,1.00
2022-10-06T11:03:20.200Z,1.48
2022-10-06T11:06:12.442Z,1.10
2022-10-06T11:08:59.760Z,1.48
2022-10-06T11:11:54.279Z,1.85
2022-10-06T11:14:49.189Z,1.60
2022-10-06T11:17:25.592Z,1.55
2022-10-06T11:20:08.798Z,1.10
2022-10-06T11:22:41.617Z,1.00
2022-10-06T11:25:29.090Z,1.15
2022-10-06T11:28:20.083Z,1.25
2022-10-06T11:31:36.817Z,1.55
2022-10-06T11:34:06.449Z,1.25
2022-10-06T11:36:55.011Z,1.67
2022-10-06T11:39:23.277Z,1.02
2022-10-06T11:42:03.551Z,0.82
2022-10-06T11:44:41.385Z,1.15
2022-10-06T11:47:16.349Z,1.30
2022-10-06T11:49:53.899Z,0.90
2022-10-06T11:54:52.290Z,0.90
2022-10-06T11:57:30.840Z,1.00
2022-10-06T12:00:16.044Z,1.17
2022-10-06T12:02:45.113Z,1.42
2022-10-06T12:10:28.440Z,0.70
2022-10-06T12:13:21.221Z,1.02
2022-10-06T12:19:39.853Z,0.95
2022-10-06T12:22:28.022Z,0.82
2022-10-06T12:25:10.679Z,1.23
2022-10-06T12:28:05.189Z,1.55
2022-10-06T12:30:47.255Z,1.50
2022-10-06T12:33:18.437Z,0.93
2022-10-06T12:35:45.707Z,0.88
2022-10-06T12:38:30.890Z,0.88
2022-10-06T12:40:57.843Z,1.20
2022-10-06T12:43:26.638Z,0.68
2022-10-06T12:45:59.232Z,0.98
2022-10-06T12:49:04.432Z,1.30
2022-10-06T12:51:42.652Z,1.83
2022-10-06T12:54:19.408Z,0.70
2022-10-06T12:57:00.614Z,0.88
2022-10-06T12:59:34.817Z,0.73
2022-10-06T13:02:16.359Z,0.93
2022-10-06T13:04:45.649Z,1.23
2022-10-06T13:07:24.123Z,1.10
2022-10-06T13:09:54.369Z,0.93
2022-10-06T13:12:30.994Z,1.17
2022-10-06T13:15:13.018Z,1.00
2022-10-06T13:17:42.934Z,1.10
2022-10-06T13:20:22.502Z,0.73
2022-10-06T13:23:07.401Z,0.65
2022-10-06T13:25:52.778Z,0.60
2022-10-06T13:28:29.425Z,0.90
2022-10-06T13:33:35.102Z,1.05
2022-10-06T13:36:02.751Z,1.13
2022-10-06T13:38:34.841Z,0.90
2022-10-06T13:41:18.201Z,1.10
2022-10-06T13:43:48.682Z,1.25
2022-10-06T13:46:19.903Z,1.27
2022-10-06T13:49:03.317Z,1.20
2022-10-06T13:51:32.516Z,1.30
2022-10-06T13:54:03.804Z,1.08
2022-10-06T13:56:39.629Z,1.45
2022-10-06T13:59:28.868Z,1.02
2022-10-06T14:01:57.332Z,1.25
2022-10-06T14:04:24.289Z,0.90
2022-10-06T14:06:58.845Z,0.68
2022-10-06T14:09:29.277Z,1.00
2022-10-06T14:12:11.678Z,1.20
2022-10-06T14:14:39.161Z,1.10
2022-10-06T14:17:06.865Z,1.67
2022-10-06T14:19:40.666Z,1.40
2022-10-06T14:22:29.775Z,1.30
2022-10-06T14:24:56.508Z,1.38
2022-10-06T14:27:23.209Z,1.30
2022-10-06T14:29:49.810Z,1.38
2022-10-06T14:32:17.874Z,1.35
2022-10-06T14:34:45.176Z,1.27
2022-10-06T14:37:17.839Z,1.20
2022-10-06T14:39:45.906Z,1.05
2022-10-06T14:42:15.468Z,1.55
2022-10-06T14:44:43.244Z,1.70
2022-10-06T14:47:10.451Z,0.75
2022-10-06T14:49:37.856Z,1.05
2022-10-06T14:52:05.533Z,1.17
2022-10-06T14:54:34.416Z,1.58
2022-10-06T14:57:01.209Z,1.20
2022-10-06T14:59:28.078Z,1.40
2022-10-06T15:01:54.820Z,1.17
2022-10-06T15:04:25.213Z,1.27
2022-10-06T15:07:10.546Z,1.45
2022-10-06T15:09:37.395Z,0.73
2022-10-06T15:12:04.777Z,1.40
2022-10-06T15:14:31.961Z,0.75
2022-10-06T15:17:01.577Z,0.93
2022-10-06T15:19:28.705Z,0.88
2022-10-06T15:21:56.182Z,1.10
2022-10-06T15:24:22.856Z,0.88
2022-10-06T15:27:08.087Z,0.90
2022-10-06T15:29:35.565Z,0.88
2022-10-06T15:32:06.457Z,0.82
2022-10-06T15:34:34.572Z,1.20
2022-10-06T15:37:01.925Z,0.70
2022-10-06T15:39:34.744Z,0.93
2022-10-06T15:42:01.727Z,1.13
2022-10-06T15:44:32.831Z,0.63
2022-10-06T15:46:59.744Z,0.90
2022-10-06T15:49:32.860Z,0.60
2022-10-06T15:52:02.927Z,0.65
2022-10-06T15:54:33.790Z,0.70
2022-10-06T15:57:02.227Z,0.90
2022-10-06T15:59:32.577Z,0.90
2022-10-06T16:02:03.454Z,0.90
2022-10-06T16:04:39.131Z,0.70
2022-10-06T16:07:14.276Z,0.88
2022-10-06T16:09:43.808Z,0.60
2022-10-06T16:12:13.605Z,0.73
2022-10-06T16:14:40.353Z,0.82
2022-10-06T16:17:08.032Z,0.98
2022-10-06T16:19:36.963Z,0.85
2022-10-06T16:22:06.201Z,0.70
2022-10-06T16:24:33.454Z,1.17
2022-10-06T16:27:00.383Z,0.70
2022-10-06T16:29:28.207Z,0.65
2022-10-06T16:31:55.803Z,0.63
2022-10-06T16:34:22.689Z,0.90
2022-10-06T16:36:49.443Z,0.95
2022-10-06T16:39:18.791Z,0.60
2022-10-06T16:41:47.525Z,0.80
2022-10-06T16:44:14.744Z,0.80
2022-10-06T16:46:42.021Z,0.73
2022-10-06T16:49:09.690Z,1.33
2022-10-06T16:51:45.880Z,0.90
2022-10-06T16:54:14.676Z,0.82
2022-10-06T16:56:43.975Z,0.90
2022-10-06T16:59:21.940Z,1.00
2022-10-06T17:01:49.946Z,0.93
2022-10-06T17:04:19.302Z,0.95
2022-10-06T17:06:51.785Z,1.25
2022-10-06T17:09:24.427Z,0.70
2022-10-06T17:11:53.510Z,0.88
2022-10-06T17:14:21.590Z,0.90
2022-10-06T17:16:50.769Z,1.05
2022-10-06T17:19:19.431Z,1.10
2022-10-06T17:21:48.752Z,1.00
2022-10-06T17:24:18.425Z,0.70
2022-10-06T17:26:47.827Z,1.00
2022-10-06T17:29:18.772Z,0.98
2022-10-06T17:31:46.788Z,1.05
2022-10-06T17:34:23.579Z,1.13
2022-10-06T17:36:52.493Z,1.00
2022-10-06T17:39:21.666Z,1.02
2022-10-06T17:41:50.656Z,1.00
2022-10-06T17:44:21.379Z,1.13
2022-10-06T17:46:53.059Z,0.90
2022-10-06T17:51:49.379Z,0.85
2022-10-06T17:54:20.805Z,0.98
2022-10-06T17:56:50.433Z,0.80
2022-10-06T17:59:28.688Z,1.17
2022-10-06T18:01:58.671Z,0.80
2022-10-06T18:04:26.547Z,0.98
2022-10-06T18:06:54.039Z,1.02
2022-10-06T18:09:22.720Z,0.80
2022-10-06T18:11:55.496Z,1.70
2022-10-06T18:14:26.190Z,0.95
2022-10-06T18:16:58.633Z,0.90
2022-10-06T18:19:45.535Z,0.93
2022-10-06T18:22:12.976Z,1.40
2022-10-06T18:24:40.311Z,0.90
2022-10-06T18:27:08.187Z,1.42
2022-10-06T18:29:37.190Z,1.35
2022-10-06T18:32:51.088Z,0.82
2022-10-06T18:37:39.725Z,1.13
2022-10-06T18:40:10.278Z,0.90
2022-10-06T18:42:38.918Z,1.38
2022-10-06T18:45:45.433Z,0.88
2022-10-06T18:48:30.559Z,1.08
2022-10-06T18:51:01.566Z,1.23
2022-10-06T18:53:31.057Z,1.33
2022-10-06T18:55:58.028Z,1.40
2022-10-06T18:58:24.729Z,1.23
2022-10-06T19:00:51.991Z,0.90
2022-10-06T19:03:18.839Z,1.30
2022-10-06T19:06:05.991Z,1.30
2022-10-06T19:08:52.928Z,0.80
2022-10-06T19:11:42.287Z,1.20
2022-10-06T19:14:09.516Z,1.25
2022-10-06T19:16:36.757Z,1.70
2022-10-06T19:19:10.350Z,1.30
2022-10-06T19:21:44.879Z,1.42
2022-10-06T19:24:15.070Z,1.60
2022-10-06T19:26:45.908Z,1.40
2022-10-06T19:29:13.996Z,0.98
2022-10-06T19:31:45.098Z,0.90
2022-10-06T19:34:17.190Z,0.82
2022-10-06T19:36:52.865Z,1.00
2022-10-06T19:39:23.498Z,1.20
2022-10-06T19:42:10.288Z,1.38
2022-10-06T19:44:42.797Z,0.93
2022-10-06T19:47:12.858Z,1.02
2022-10-06T19:49:39.833Z,0.93
2022-10-06T19:52:09.660Z,1.30
2022-10-06T19:54:37.253Z,1.20
2022-10-06T19:57:05.672Z,0.80
2022-10-06T19:59:33.096Z,1.00
2022-10-06T20:02:00.829Z,1.10
2022-10-06T20:04:27.542Z,1.08
2022-10-06T20:06:54.380Z,1.17
2022-10-06T20:09:23.037Z,1.35
2022-10-06T20:11:51.273Z,1.20
2022-10-06T20:14:21.225Z,0.95
2022-10-06T20:16:50.837Z,0.82
2022-10-06T20:19:18.839Z,1.10
2022-10-06T20:21:45.944Z,1.15
2022-10-06T20:24:22.678Z,1.20
2022-10-06T20:26:51.054Z,1.30
2022-10-06T20:29:21.855Z,1.38
2022-10-06T20:31:51.454Z,1.27
2022-10-06T20:34:21.455Z,1.30
2022-10-06T20:36:51.881Z,1.17
2022-10-06T20:39:40.714Z,1.10
2022-10-06T20:42:12.251Z,1.70
2022-10-06T20:44:42.250Z,1.30
2022-10-06T20:47:10.436Z,1.60
2022-10-06T20:49:37.867Z,1.50
2022-10-06T20:52:05.785Z,1.52
2022-10-06T20:54:35.052Z,1.77
2022-10-06T20:57:04.439Z,1.05
2022-10-06T20:59:31.743Z,1.00
2022-10-06T21:02:02.652Z,1.00
2022-10-06T21:04:30.333Z,1.33
2022-10-06T21:06:57.611Z,1.38
2022-10-06T21:09:24.833Z,0.90
2022-10-06T21:11:52.185Z,0.93
2022-10-06T21:14:19.002Z,1.10
2022-10-06T21:16:48.308Z,1.20
2022-10-06T21:19:16.989Z,1.30
2022-10-06T21:21:49.865Z,1.23
2022-10-06T21:24:16.838Z,1.25
2022-10-06T21:26:43.994Z,1.35
2022-10-06T21:29:15.511Z,1.20
2022-10-06T21:34:10.616Z,1.90
2022-10-06T21:36:37.922Z,1.88
2022-10-06T21:39:05.766Z,0.90
2022-10-06T21:41:38.577Z,1.30
2022-10-06T21:44:16.992Z,0.95
2022-10-06T21:46:54.627Z,0.90
2022-10-06T21:49:23.474Z,0.90
2022-10-06T21:51:52.474Z,0.80
2022-10-06T21:54:20.430Z,1.58
2022-10-06T21:56:47.125Z,1.08
2022-10-06T21:59:14.209Z,1.20
2022-10-06T22:01:43.742Z,1.10
2022-10-06T22:04:12.848Z,1.17
2022-10-06T22:06:40.020Z,1.40
2022-10-06T22:09:08.675Z,1.20
2022-10-06T22:11:38.252Z,1.08
2022-10-06T22:14:08.777Z,1.10
2022-10-06T22:16:36.486Z,1.00
2022-10-06T22:19:05.531Z,1.33
2022-10-06T22:21:34.891Z,1.00
2022-10-06T22:24:13.987Z,1.35
2022-10-06T22:26:42.311Z,1.50
2022-10-06T22:29:11.789Z,1.02
2022-10-06T22:31:40.808Z,1.50
2022-10-06T22:34:09.415Z,1.25
2022-10-06T22:36:36.210Z,1.05
2022-10-06T22:39:03.578Z,1.20
2022-10-06T22:41:30.453Z,1.30
2022-10-06T22:43:58.641Z,1.05
2022-10-06T22:46:31.960Z,1.67
2022-10-06T22:48:59.393Z,1.65
2022-10-06T22:51:26.305Z,1.35
2022-10-06T22:53:57.862Z,1.33
2022-10-06T22:56:29.647Z,1.55
2022-10-06T22:58:59.722Z,1.52
2022-10-06T23:01:27.679Z,1.02
2022-10-06T23:03:55.544Z,1.20
2022-10-06T23:06:22.393Z,1.23
2022-10-06T23:08:49.129Z,1.10
2022-10-06T23:11:18.558Z,1.00
2022-10-06T23:13:46.122Z,1.10
2022-10-06T23:16:15.572Z,1.02
2022-10-06T23:18:43.760Z,1.25
2022-10-06T23:21:22.460Z,1.23
2022-10-06T23:23:54.236Z,1.33
2022-10-06T23:26:22.345Z,0.98
2022-10-06T23:28:55.151Z,1.02
2022-10-06T23:31:22.570Z,1.45
2022-10-06T23:33:49.427Z,1.25
2022-10-06T23:36:17.617Z,1.15
2022-10-06T23:38:45.400Z,1.10
2022-10-06T23:41:13.490Z,1.20
2022-10-06T23:43:40.353Z,1.30
2022-10-06T23:46:07.511Z,1.30
2022-10-06T23:48:34.460Z,1.20
2022-10-06T23:51:06.852Z,1.02
2022-10-06T23:53:34.498Z,1.60
2022-10-06T23:56:01.246Z,1.08
2022-10-06T23:58:28.657Z,1.52
